Time;durP1;ratioP1;P1;durP2;ratioP2;P2;SDS_P1;SDS_P2;PMS_P1;PMS_P2;Temp;Humidity;BMP_temperature;BMP_pressure;BME280_temperature;BME280_humidity;BME280_pressure;Samples;Min_cycle;Max_cycle;Signal;HPM_P1;HPM_P2
2021/12/07 00:02:02;;;;;;;3.83;3.47;;;;;;;5.01;100.00;62519.13;5036082;28;20209;-78
2021/12/07 00:04:30;;;;;;;3.65;3.35;;;;;;;4.93;100.00;62508.38;5025576;28;20285;-77
2021/12/07 00:06:57;;;;;;;3.50;3.20;;;;;;;4.87;100.00;62502.19;5025080;28;20221;-79
2021/12/07 00:09:24;;;;;;;2.90;2.70;;;;;;;4.82;100.00;62499.56;5037905;28;20240;-78
2021/12/07 00:11:51;;;;;;;2.70;2.30;;;;;;;4.84;100.00;62493.53;5025471;28;20199;-78
2021/12/07 00:14:24;;;;;;;2.50;2.30;;;;;;;4.86;100.00;62495.59;5021547;28;20214;-78
2021/12/07 00:16:53;;;;;;;1.92;1.83;;;;;;;4.85;100.00;62490.03;5011438;28;20201;-78
2021/12/07 00:19:20;;;;;;;1.65;1.55;;;;;;;4.82;100.00;62494.50;5030258;28;20237;-79
2021/12/07 00:21:48;;;;;;;1.65;1.58;;;;;;;4.81;100.00;62498.53;5022135;28;20205;-79
2021/12/07 00:24:16;;;;;;;1.75;1.65;;;;;;;4.89;100.00;62498.66;5017651;28;20247;-79
2021/12/07 00:26:45;;;;;;;2.20;2.10;;;;;;;4.92;100.00;62504.28;5025999;28;20202;-79
2021/12/07 00:29:14;;;;;;;1.67;1.58;;;;;;;5.04;100.00;62514.13;5016455;28;20556;-79
2021/12/07 00:31:50;;;;;;;1.90;1.80;;;;;;;5.02;100.00;62515.09;5020577;28;20229;-79
2021/12/07 00:34:25;;;;;;;2.20;2.10;;;;;;;5.16;100.00;62524.47;5030364;28;20252;-79
2021/12/07 00:36:54;;;;;;;2.30;2.13;;;;;;;5.11;100.00;62523.88;5034750;28;20249;-79
2021/12/07 00:39:25;;;;;;;2.30;2.20;;;;;;;4.94;100.00;62506.88;5030380;28;20218;-79
2021/12/07 00:41:54;;;;;;;3.30;2.90;;;;;;;4.92;100.00;62501.78;5029109;28;20259;-78
2021/12/07 00:44:23;;;;;;;3.58;2.63;;;;;;;4.81;100.00;62493.47;5032706;28;20230;-78
2021/12/07 00:46:51;;;;;;;3.70;3.40;;;;;;;4.59;100.00;62468.31;5031183;28;20224;-79
2021/12/07 00:49:18;;;;;;;3.58;3.30;;;;;;;4.46;100.00;62457.44;5033421;28;20238;-79
2021/12/07 00:51:45;;;;;;;3.15;2.95;;;;;;;4.42;100.00;62450.81;5021359;28;20202;-79
2021/12/07 00:54:14;;;;;;;3.45;3.25;;;;;;;4.38;100.00;62447.19;5027415;28;20218;-80
2021/12/07 00:56:41;;;;;;;5.47;3.42;;;;;;;4.38;100.00;62452.25;5032160;28;20205;-80
2021/12/07 00:59:08;;;;;;;2.85;2.60;;;;;;;4.39;100.00;62450.25;5038967;28;20218;-79
2021/12/07 01:01:36;;;;;;;3.58;2.50;;;;;;;4.44;100.00;62455.91;5024829;28;20226;-79
2021/12/07 01:04:04;;;;;;;3.03;2.53;;;;;;;4.45;100.00;62461.97;5049531;28;20249;-79
2021/12/07 01:06:43;;;;;;;3.63;2.25;;;;;;;4.37;100.00;62445.66;5028998;28;20198;-79
2021/12/07 01:09:18;;;;;;;2.20;2.10;;;;;;;4.41;100.00;62452.31;5022378;28;20241;-80
2021/12/07 01:25:45;;;;;;;1.90;1.80;;;;;;;4.44;100.00;62460.44;5035806;28;20388;-79
2021/12/07 01:28:21;;;;;;;3.90;2.08;;;;;;;4.54;100.00;62463.16;5028687;28;20223;-79
2021/12/07 01:30:54;;;;;;;5.22;2.13;;;;;;;4.57;100.00;62466.25;5038397;28;20240;-78
2021/12/07 01:33:47;;;;;;;12.30;3.08;;;;;;;4.63;100.00;62474.94;5039884;28;20290;-79
2021/12/07 01:44:41;;;;;;;2.63;1.88;;;;;;;4.84;100.00;62496.06;5019583;28;20329;-79
2021/12/07 01:50:24;;;;;;;1.85;1.23;;;;;;;4.81;100.00;62485.91;5015498;28;20223;-78
2021/12/07 02:01:07;;;;;;;1.42;1.20;;;;;;;4.92;100.00;62502.28;5029515;28;20214;-78
2021/12/07 02:03:34;;;;;;;1.33;1.23;;;;;;;4.94;100.00;62508.88;5035342;28;20292;-79
2021/12/07 02:06:01;;;;;;;1.35;1.23;;;;;;;4.98;100.00;62511.00;5033689;28;20194;-79
2021/12/07 02:08:28;;;;;;;1.13;1.05;;;;;;;5.04;100.00;62509.59;5030352;28;20261;-79
2021/12/07 02:10:59;;;;;;;2.25;0.93;;;;;;;5.03;100.00;62513.09;5032271;28;20206;-79
2021/12/07 02:16:10;;;;;;;7.75;2.25;;;;;;;5.05;100.00;62513.16;5021955;28;20214;-79
2021/12/07 02:18:37;;;;;;;1.83;1.73;;;;;;;5.07;100.00;62522.25;5029329;28;20214;-79
2021/12/07 02:21:22;;;;;;;3.63;1.73;;;;;;;5.08;100.00;62515.72;5043896;28;20209;-78
2021/12/07 02:23:50;;;;;;;1.77;1.67;;;;;;;4.97;100.00;62517.00;5030674;28;20214;-79
2021/12/07 02:26:17;;;;;;;1.75;1.60;;;;;;;4.97;100.00;62511.97;5032580;28;20265;-78
2021/12/07 02:28:44;;;;;;;3.75;1.77;;;;;;;4.95;100.00;62507.38;5030950;28;20229;-79
2021/12/07 02:31:11;;;;;;;5.35;2.67;;;;;;;4.64;100.00;62478.50;5040072;28;20207;-78
2021/12/07 02:33:39;;;;;;;3.08;2.78;;;;;;;4.71;100.00;62483.69;5029483;28;20265;-79
2021/12/07 02:36:06;;;;;;;3.15;2.95;;;;;;;4.61;100.00;62470.38;5034904;28;20204;-80
2021/12/07 02:38:34;;;;;;;6.05;3.38;;;;;;;4.46;100.00;62452.94;5023730;28;20238;-79
2021/12/07 02:41:02;;;;;;;2.28;2.03;;;;;;;4.36;100.00;62450.22;5028825;28;20222;-78
2021/12/07 02:43:29;;;;;;;5.05;2.13;;;;;;;4.13;100.00;62421.50;5032069;28;20214;-79
2021/12/07 02:45:56;;;;;;;3.78;2.33;;;;;;;4.18;100.00;62429.16;5031901;28;20402;-79
2021/12/07 02:48:23;;;;;;;5.43;2.08;;;;;;;4.08;100.00;62415.81;5027602;28;20526;-79
2021/12/07 02:50:51;;;;;;;2.25;2.05;;;;;;;4.02;100.00;62412.69;5023743;28;20566;-80
2021/12/07 02:53:21;;;;;;;5.50;2.17;;;;;;;4.03;100.00;62413.72;5046032;28;20272;-79
2021/12/07 02:55:50;;;;;;;2.40;2.30;;;;;;;3.97;100.00;62407.03;5032202;28;20199;-80
2021/12/07 02:58:17;;;;;;;3.17;2.28;;;;;;;3.86;100.00;62390.69;5025884;28;20285;-80
2021/12/07 03:00:51;;;;;;;2.75;2.55;;;;;;;3.91;100.00;62395.81;5032830;28;20216;-80
2021/12/07 03:03:18;;;;;;;3.15;2.95;;;;;;;3.95;100.00;62400.44;5028275;28;20222;-79
2021/12/07 03:05:52;;;;;;;3.25;2.65;;;;;;;3.93;100.00;62400.91;5033583;28;20203;-78
2021/12/07 03:27:32;;;;;;;2.72;2.55;;;;;;;3.64;100.00;62378.66;5025870;28;20229;-79
2021/12/07 03:29:59;;;;;;;2.60;2.40;;;;;;;3.54;100.00;62363.84;5025888;28;20230;-78
2021/12/07 03:32:26;;;;;;;3.65;2.25;;;;;;;3.35;100.00;62341.78;5027155;28;20214;-79
2021/12/07 03:34:52;;;;;;;2.97;2.78;;;;;;;3.44;100.00;62353.56;5035715;28;20203;-79
2021/12/07 03:37:19;;;;;;;2.38;2.28;;;;;;;3.35;100.00;62341.25;5042197;28;20234;-79
2021/12/07 03:39:46;;;;;;;2.92;1.63;;;;;;;3.33;100.00;62337.22;5044825;28;20198;-79
2021/12/07 03:42:13;;;;;;;1.73;1.70;;;;;;;3.24;100.00;62327.44;5033316;28;20195;-79
2021/12/07 03:44:41;;;;;;;1.20;1.20;;;;;;;3.12;100.00;62318.13;5029667;28;20203;-79
2021/12/07 03:47:08;;;;;;;1.00;1.00;;;;;;;3.00;100.00;62305.31;5036157;28;20198;-79
2021/12/07 03:49:35;;;;;;;1.10;1.00;;;;;;;3.09;100.00;62312.53;5028389;28;20230;-79
2021/12/07 03:52:02;;;;;;;0.98;0.95;;;;;;;2.97;100.00;62307.75;5036532;28;20202;-78
2021/12/07 03:54:29;;;;;;;1.00;0.95;;;;;;;2.70;100.00;62274.47;5034515;28;20388;-80
2021/12/07 03:56:56;;;;;;;1.45;1.38;;;;;;;2.78;100.00;62285.72;5028197;28;20270;-78
2021/12/07 03:59:23;;;;;;;2.67;1.10;;;;;;;2.84;100.00;62289.38;5027285;28;20234;-78
2021/12/07 04:01:52;;;;;;;1.20;1.13;;;;;;;2.79;100.00;62284.25;5030698;28;20214;-77
2021/12/07 04:04:19;;;;;;;1.10;1.10;;;;;;;2.70;100.00;62274.97;5032115;28;20222;-78
2021/12/07 04:06:46;;;;;;;2.58;1.17;;;;;;;2.82;100.00;62289.31;5032333;28;20375;-78
2021/12/07 04:09:12;;;;;;;0.82;0.80;;;;;;;2.78;100.00;62283.19;5023445;28;20225;-79
2021/12/07 04:11:39;;;;;;;1.77;1.30;;;;;;;2.90;100.00;62295.03;5045908;28;20232;-79
2021/12/07 04:14:07;;;;;;;1.27;1.23;;;;;;;2.83;100.00;62293.38;5038136;28;20233;-80
2021/12/07 04:16:34;;;;;;;4.32;1.33;;;;;;;2.83;100.00;62287.84;5030850;28;20504;-78
2021/12/07 04:19:03;;;;;;;1.45;1.27;;;;;;;2.75;100.00;62282.13;5025022;28;20222;-78
2021/12/07 04:21:29;;;;;;;1.45;1.45;;;;;;;2.65;100.00;62272.38;5031081;28;20354;-81
2021/12/07 04:23:56;;;;;;;1.40;1.30;;;;;;;2.81;100.00;62286.28;5033770;28;20226;-80
2021/12/07 04:26:24;;;;;;;3.97;1.50;;;;;;;2.73;100.00;62278.06;5041110;28;20214;-80
2021/12/07 04:28:51;;;;;;;3.28;1.42;;;;;;;2.87;100.00;62291.94;5024605;28;20281;-79
2021/12/07 04:31:20;;;;;;;1.67;1.58;;;;;;;2.91;100.00;62294.06;5031205;28;20253;-79
2021/12/07 04:33:47;;;;;;;1.70;1.60;;;;;;;2.87;100.00;62296.97;5032488;28;20226;-78
2021/12/07 04:36:15;;;;;;;1.67;1.58;;;;;;;2.73;100.00;62282.56;5038874;28;20194;-79
2021/12/07 04:38:43;;;;;;;1.92;1.83;;;;;;;2.54;100.00;62260.56;5037267;28;20226;-78
2021/12/07 04:41:10;;;;;;;1.65;1.55;;;;;;;2.63;100.00;62267.28;5034519;28;20210;-79
2021/12/07 04:43:44;;;;;;;1.42;1.38;;;;;;;2.60;100.00;62272.25;5049559;28;20223;-82
2021/12/07 04:57:40;;;;;;;1.65;1.40;;;;;;;2.16;100.00;62222.53;5023747;28;20203;-80
2021/12/07 05:00:09;;;;;;;1.75;1.65;;;;;;;2.14;100.00;62217.47;5008416;28;20199;-79
2021/12/07 05:02:38;;;;;;;1.65;1.55;;;;;;;2.10;100.00;62215.88;5005820;28;20226;-79
2021/12/07 05:05:07;;;;;;;1.10;1.10;;;;;;;2.17;100.00;62223.06;5022591;28;20203;-81
2021/12/07 05:07:40;;;;;;;1.30;1.30;;;;;;;2.07;100.00;62215.31;5022344;28;20218;-79
2021/12/07 05:10:22;;;;;;;2.50;1.48;;;;;;;2.06;100.00;62212.28;4997277;28;20271;-79
2021/12/07 05:19:00;;;;;;;0.80;0.80;;;;;;;1.71;100.00;62176.34;5044429;28;20226;-79
2021/12/07 05:24:17;;;;;;;1.25;1.20;;;;;;;1.28;100.00;62132.22;5129803;28;20214;-79
2021/12/07 05:37:55;;;;;;;1.65;1.55;;;;;;;1.42;100.00;62144.06;5142831;27;20600;-79
2021/12/07 05:40:24;;;;;;;1.33;1.33;;;;;;;1.33;100.00;62134.34;5113063;28;20202;-78
2021/12/07 05:42:51;;;;;;;1.58;1.48;;;;;;;1.34;100.00;62135.88;5126908;28;20455;-79
2021/12/07 05:45:24;;;;;;;1.00;1.00;;;;;;;1.40;100.00;62141.50;5112281;28;20196;-79
2021/12/07 05:47:53;;;;;;;0.90;0.90;;;;;;;1.44;100.00;62145.59;5126933;28;20227;-78
2021/12/07 05:50:23;;;;;;;1.35;1.35;;;;;;;1.35;100.00;62136.38;5131639;27;20260;-78
2021/12/07 05:52:50;;;;;;;0.85;0.82;;;;;;;1.39;100.00;62142.97;5117773;28;20234;-78
2021/12/07 05:55:17;;;;;;;1.70;1.60;;;;;;;1.35;100.00;62136.88;5113789;28;20520;-79
2021/12/07 05:57:44;;;;;;;1.73;1.63;;;;;;;1.35;100.00;62138.88;5129413;28;20224;-80
2021/12/07 06:00:17;;;;;;;2.10;2.00;;;;;;;1.37;100.00;62143.44;5131686;27;20425;-79
2021/12/07 06:02:44;;;;;;;4.95;2.30;;;;;;;1.43;100.00;62142.06;5109084;28;20223;-80
2021/12/07 06:05:12;;;;;;;2.05;1.95;;;;;;;1.29;100.00;62133.25;5119505;28;20253;-79
2021/12/07 06:07:39;;;;;;;2.05;1.95;;;;;;;1.39;100.00;62141.00;5117399;28;20220;-79
2021/12/07 06:10:07;;;;;;;2.55;2.35;;;;;;;1.39;100.00;62148.00;5123594;28;20229;-79
2021/12/07 06:12:33;;;;;;;5.90;2.75;;;;;;;1.28;100.00;62129.69;5118805;28;20223;-78
2021/12/07 06:15:00;;;;;;;2.28;2.17;;;;;;;1.38;100.00;62139.47;5115437;28;20266;-78
2021/12/07 06:17:27;;;;;;;3.17;2.83;;;;;;;1.34;100.00;62135.88;5125293;28;20253;-78
2021/12/07 06:19:54;;;;;;;2.08;1.98;;;;;;;1.39;100.00;62143.50;5122189;28;20241;-78
2021/12/07 06:22:22;;;;;;;2.53;2.33;;;;;;;1.36;100.00;62137.41;5130176;28;20244;-80
2021/12/07 06:24:49;;;;;;;2.30;2.17;;;;;;;1.25;100.00;62129.13;5123667;27;20415;-79
2021/12/07 06:27:16;;;;;;;1.63;1.55;;;;;;;1.31;100.00;62134.78;5106550;28;20246;-79
2021/12/07 06:29:42;;;;;;;2.17;1.98;;;;;;;1.31;100.00;62137.28;5102130;28;20192;-78
2021/12/07 06:32:10;;;;;;;2.78;1.85;;;;;;;1.37;100.00;62138.41;5100227;28;20208;-77
2021/12/07 06:34:37;;;;;;;1.50;1.50;;;;;;;1.39;100.00;62143.50;5107347;28;20255;-77
2021/12/07 06:37:04;;;;;;;1.75;1.63;;;;;;;1.43;100.00;62150.13;5095540;28;20567;-78
2021/12/07 06:39:33;;;;;;;1.48;1.48;;;;;;;1.39;100.00;62140.47;5101645;28;20656;-77
2021/12/07 06:42:00;;;;;;;1.10;1.10;;;;;;;1.38;100.00;62141.97;5103130;28;20219;-77
2021/12/07 06:44:27;;;;;;;2.38;2.25;;;;;;;1.34;100.00;62135.34;5101790;28;20215;-78
2021/12/07 06:46:54;;;;;;;3.85;3.53;;;;;;;1.31;100.00;62134.78;5119810;28;20199;-78
2021/12/07 06:49:21;;;;;;;3.80;3.50;;;;;;;1.30;100.00;62131.75;5100204;28;20215;-78
2021/12/07 06:51:51;;;;;;;5.30;4.03;;;;;;;1.06;100.00;62109.63;5110989;28;20494;-79
2021/12/07 06:54:19;;;;;;;3.10;2.38;;;;;;;1.31;100.00;62134.78;5095745;28;20577;-78
2021/12/07 06:56:48;;;;;;;3.50;2.55;;;;;;;1.21;100.00;62122.53;5094277;28;20197;-78
2021/12/07 06:59:14;;;;;;;2.40;2.30;;;;;;;1.24;100.00;62130.09;5092403;28;20220;-77
2021/12/07 07:01:41;;;;;;;2.50;2.05;;;;;;;1.13;100.00;62119.34;5104644;28;20227;-78
2021/12/07 07:04:11;;;;;;;2.55;2.35;;;;;;;1.07;100.00;62108.16;5104198;28;20216;-78
2021/12/07 07:06:38;;;;;;;2.45;2.25;;;;;;;0.91;100.00;62091.75;5107561;28;20511;-78
2021/12/07 07:09:06;;;;;;;3.80;2.55;;;;;;;0.93;100.00;62098.81;5102512;28;20235;-78
2021/12/07 07:11:33;;;;;;;2.85;2.17;;;;;;;0.95;100.00;62098.88;5111546;28;20200;-78
2021/12/07 07:14:02;;;;;;;2.88;2.03;;;;;;;0.94;100.00;62097.84;5101848;28;20234;-78
2021/12/07 07:16:29;;;;;;;2.85;2.65;;;;;;;0.92;100.00;62092.78;5104040;28;20196;-78
2021/12/07 07:18:57;;;;;;;2.92;2.72;;;;;;;0.91;100.00;62097.28;5100306;28;20278;-78
2021/12/07 07:21:24;;;;;;;3.70;3.40;;;;;;;0.82;100.00;62085.53;5102210;28;20229;-80
2021/12/07 07:23:53;;;;;;;2.58;2.38;;;;;;;0.87;100.00;62090.66;5100133;28;20221;-78
2021/12/07 07:26:20;;;;;;;6.07;3.40;;;;;;;0.79;100.00;62079.97;5092079;28;20501;-78
2021/12/07 07:28:48;;;;;;;3.30;3.10;;;;;;;0.81;100.00;62082.00;5103180;28;20215;-79
2021/12/07 07:31:16;;;;;;;4.18;3.78;;;;;;;0.80;100.00;62080.97;5113365;28;20271;-79
2021/12/07 07:33:43;;;;;;;3.50;3.20;;;;;;;0.90;100.00;62093.22;5103182;28;20267;-80
2021/12/07 07:36:10;;;;;;;2.50;2.30;;;;;;;0.84;100.00;62089.59;5114121;28;20227;-79
2021/12/07 07:38:37;;;;;;;2.40;2.30;;;;;;;0.89;100.00;62090.22;5099635;28;20220;-80
2021/12/07 07:41:05;;;;;;;3.22;2.25;;;;;;;0.90;100.00;62090.72;5097457;28;20214;-78
2021/12/07 07:43:33;;;;;;;3.05;2.33;;;;;;;0.92;100.00;62090.25;5119883;28;20216;-78
2021/12/07 07:46:00;;;;;;;2.67;2.38;;;;;;;0.99;100.00;62099.94;5103116;28;20196;-80
2021/12/07 07:48:28;;;;;;;8.57;3.30;;;;;;;0.98;100.00;62099.44;5103723;28;20291;-79
2021/12/07 07:50:56;;;;;;;3.17;3.00;;;;;;;0.86;100.00;62086.63;5106548;28;20199;-79
2021/12/07 07:53:23;;;;;;;19.15;12.20;;;;;;;0.92;100.00;62095.78;5110004;28;20259;-79
2021/12/07 07:55:50;;;;;;;3.65;2.40;;;;;;;0.77;100.00;62077.91;5111502;28;20574;-80
2021/12/07 07:58:18;;;;;;;3.83;3.05;;;;;;;0.78;100.00;62085.94;5098022;28;20444;-78
2021/12/07 08:00:47;;;;;;;3.90;3.60;;;;;;;0.83;100.00;62083.53;5107862;28;20203;-80
2021/12/07 08:03:14;;;;;;;3.45;3.10;;;;;;;0.89;100.00;62095.22;5108160;28;20249;-80
2021/12/07 08:05:42;;;;;;;5.78;3.20;;;;;;;0.88;100.00;62089.19;5113533;28;20202;-80
2021/12/07 08:08:09;;;;;;;4.20;3.80;;;;;;;0.91;100.00;62092.28;5105548;28;20438;-80
2021/12/07 08:10:35;;;;;;;3.38;3.08;;;;;;;0.95;100.00;62095.84;5120722;28;20204;-80
2021/12/07 08:13:06;;;;;;;7.28;5.57;;;;;;;0.87;100.00;62090.66;5107019;28;20227;-80
2021/12/07 08:15:36;;;;;;;5.60;4.38;;;;;;;0.97;100.00;62100.91;5112803;28;20286;-79
2021/12/07 08:18:03;;;;;;;4.88;4.07;;;;;;;0.50;100.00;62050.22;5103182;28;20243;-79
2021/12/07 08:20:31;;;;;;;4.13;3.83;;;;;;;0.74;100.00;62076.81;5113647;28;20252;-79
2021/12/07 08:23:04;;;;;;;4.57;4.10;;;;;;;0.65;100.00;62065.59;5094023;28;20225;-79
2021/12/07 08:25:31;;;;;;;4.25;3.88;;;;;;;0.64;100.00;62067.06;5098928;28;20378;-79
2021/12/07 08:27:58;;;;;;;4.50;4.10;;;;;;;0.69;100.00;62069.19;5102439;28;20219;-80
2021/12/07 08:30:25;;;;;;;4.97;4.57;;;;;;;0.82;100.00;62082.53;5096899;28;20509;-79
2021/12/07 08:32:52;;;;;;;5.07;4.68;;;;;;;0.70;100.00;62072.72;5106383;28;20216;-79
2021/12/07 08:35:21;;;;;;;4.60;3.60;;;;;;;0.70;100.00;62070.22;5094204;28;20232;-80
2021/12/07 08:37:49;;;;;;;11.13;4.03;;;;;;;0.63;100.00;62061.03;5094460;28;20221;-81
2021/12/07 08:40:21;;;;;;;4.72;4.30;;;;;;;0.56;100.00;62056.38;5108588;28;20210;-82
2021/12/07 08:42:50;;;;;;;4.78;4.20;;;;;;;0.79;100.00;62084.97;5109286;28;20217;-82
2021/12/07 08:45:17;;;;;;;4.43;4.03;;;;;;;0.74;100.00;62077.31;5105311;28;20231;-80
2021/12/07 08:47:45;;;;;;;6.05;4.60;;;;;;;0.83;100.00;62089.06;5122338;28;20211;-80
2021/12/07 08:50:21;;;;;;;5.20;4.35;;;;;;;0.87;100.00;62090.66;5118161;28;20193;-81
2021/12/07 08:52:49;;;;;;;10.10;5.32;;;;;;;0.83;100.00;62084.06;5113827;28;20265;-80
2021/12/07 09:00:48;;;;;;;4.13;3.75;;;;;;;0.49;100.00;62054.19;5105373;28;20457;-80
2021/12/07 09:03:14;;;;;;;4.28;3.45;;;;;;;0.49;100.00;62051.69;5106157;28;20228;-80
2021/12/07 09:05:41;;;;;;;4.35;3.95;;;;;;;0.59;100.00;62059.44;5087611;28;20208;-80
2021/12/07 09:08:08;;;;;;;6.80;5.38;;;;;;;0.66;100.00;62068.59;5096342;28;20420;-81
2021/12/07 09:10:36;;;;;;;5.82;5.03;;;;;;;0.50;100.00;62049.72;5100480;28;20245;-80
2021/12/07 09:13:04;;;;;;;6.35;4.70;;;;;;;0.60;100.00;62059.97;5093700;28;20220;-80
2021/12/07 09:15:30;;;;;;;7.45;4.85;;;;;;;0.76;100.00;62076.38;5105000;28;20226;-79
2021/12/07 09:17:57;;;;;;;3.60;3.38;;;;;;;0.76;100.00;62073.88;5102550;28;20250;-81
2021/12/07 09:20:24;;;;;;;3.85;3.55;;;;;;;0.75;100.00;62072.84;5104504;28;20264;-81
2021/12/07 09:22:51;;;;;;;3.45;3.25;;;;;;;0.81;100.00;62084.50;5101142;28;20536;-80
2021/12/07 09:25:19;;;;;;;5.95;4.25;;;;;;;0.99;100.00;62099.94;5101486;28;20199;-83
2021/12/07 09:27:47;;;;;;;7.65;4.78;;;;;;;1.01;100.00;62102.53;5112870;28;20257;-81
2021/12/07 09:30:17;;;;;;;7.05;3.63;;;;;;;0.65;100.00;62065.09;5090303;28;20195;-81
2021/12/07 09:32:44;;;;;;;3.67;3.38;;;;;;;0.91;100.00;62091.75;5118121;28;20259;-83
2021/12/07 09:35:13;;;;;;;2.78;2.58;;;;;;;0.96;100.00;62097.41;5096899;28;20231;-81
2021/12/07 09:37:40;;;;;;;3.40;2.55;;;;;;;0.68;100.00;62071.19;5091280;28;20439;-82
2021/12/07 09:40:13;;;;;;;3.95;2.92;;;;;;;1.01;100.00;62102.53;5095685;28;20250;-82
2021/12/07 09:42:41;;;;;;;2.40;2.20;;;;;;;0.76;100.00;62076.88;5113557;28;20408;-82
2021/12/07 09:45:12;;;;;;;3.13;2.80;;;;;;;0.77;100.00;62079.91;5110451;28;20218;-83
2021/12/07 09:47:39;;;;;;;3.58;3.28;;;;;;;0.87;100.00;62085.13;5098904;28;20261;-81
2021/12/07 09:50:08;;;;;;;2.45;2.35;;;;;;;0.85;100.00;62090.59;5105792;28;20220;-82
2021/12/07 09:52:35;;;;;;;3.35;3.05;;;;;;;0.92;100.00;62098.31;5109697;28;20219;-81
2021/12/07 09:55:02;;;;;;;3.60;3.30;;;;;;;1.03;100.00;62101.56;5116847;28;20220;-80
2021/12/07 09:57:28;;;;;;;3.17;2.97;;;;;;;0.88;100.00;62088.69;5108931;28;20222;-80
2021/12/07 09:59:55;;;;;;;3.45;3.15;;;;;;;0.90;100.00;62093.75;5122584;28;20204;-79
2021/12/07 10:02:24;;;;;;;2.50;2.40;;;;;;;0.74;100.00;62074.81;5110117;28;20413;-80
2021/12/07 10:04:50;;;;;;;3.20;2.90;;;;;;;0.61;100.00;62064.00;5115555;28;20492;-82
2021/12/07 10:07:18;;;;;;;6.05;2.50;;;;;;;0.88;100.00;62089.19;5107130;28;20205;-81
2021/12/07 10:09:45;;;;;;;8.00;2.63;;;;;;;1.02;100.00;62105.53;5110804;28;20196;-80
2021/12/07 10:12:18;;;;;;;2.95;2.75;;;;;;;1.03;100.00;62107.09;5104819;28;20509;-81
2021/12/07 10:14:45;;;;;;;9.15;6.47;;;;;;;1.24;100.00;62127.59;5119964;28;20270;-82
2021/12/07 10:17:12;;;;;;;2.95;2.75;;;;;;;1.24;100.00;62127.59;5097903;28;20231;-79
2021/12/07 10:19:43;;;;;;;3.80;3.50;;;;;;;1.22;100.00;62120.53;5119630;28;20199;-81
2021/12/07 10:22:13;;;;;;;3.72;3.53;;;;;;;1.24;100.00;62125.59;5114436;28;20199;-81
2021/12/07 10:24:46;;;;;;;2.67;2.47;;;;;;;0.89;100.00;62090.22;5117984;28;20200;-81
2021/12/07 10:27:13;;;;;;;4.07;3.00;;;;;;;0.88;100.00;62091.19;5112018;28;20219;-81
2021/12/07 10:29:41;;;;;;;5.85;2.55;;;;;;;1.00;100.00;62098.47;5124703;28;20199;-82
2021/12/07 10:32:08;;;;;;;2.40;2.30;;;;;;;0.80;100.00;62082.97;5110178;28;20248;-82
2021/12/07 10:34:40;;;;;;;2.92;2.65;;;;;;;0.78;100.00;62081.44;5113362;28;20195;-81
2021/12/07 10:37:11;;;;;;;3.47;3.17;;;;;;;0.99;100.00;62100.47;5092404;28;20247;-81
2021/12/07 10:39:40;;;;;;;5.28;3.05;;;;;;;0.70;100.00;62075.22;5114600;28;20199;-82
2021/12/07 10:42:09;;;;;;;2.58;2.47;;;;;;;0.82;100.00;62083.03;5120310;28;20204;-83
2021/12/07 10:44:38;;;;;;;5.20;2.95;;;;;;;0.78;100.00;62083.94;5106150;28;20193;-82
2021/12/07 10:47:07;;;;;;;2.28;2.17;;;;;;;0.71;100.00;62068.72;5099515;28;20196;-80
2021/12/07 10:49:42;;;;;;;5.13;2.92;;;;;;;0.82;100.00;62085.53;5121119;28;20475;-81
2021/12/07 10:52:15;;;;;;;3.10;2.80;;;;;;;0.81;100.00;62079.00;5121994;28;20202;-81
2021/12/07 10:54:52;;;;;;;6.78;3.15;;;;;;;0.77;100.00;62077.41;5116894;28;20363;-80
2021/12/07 10:57:21;;;;;;;4.75;3.10;;;;;;;0.67;100.00;62067.66;5117713;28;20219;-81
2021/12/07 10:59:59;;;;;;;3.75;3.50;;;;;;;0.74;100.00;62074.81;5115336;28;20496;-82
2021/12/07 11:02:30;;;;;;;16.25;10.07;;;;;;;0.72;100.00;62074.78;5107313;28;20436;-82
2021/12/07 11:04:58;;;;;;;4.78;4.05;;;;;;;0.92;100.00;62092.78;5120214;28;20222;-81
2021/12/07 11:07:28;;;;;;;2.92;2.53;;;;;;;0.75;100.00;62080.34;5113400;28;20195;-80
2021/12/07 11:10:04;;;;;;;2.40;2.20;;;;;;;0.81;100.00;62084.00;5101236;28;20196;-81
2021/12/07 11:12:37;;;;;;;3.22;3.03;;;;;;;0.85;100.00;62091.13;5123221;28;20544;-81
2021/12/07 11:15:12;;;;;;;4.05;3.72;;;;;;;0.78;100.00;62086.44;5109350;28;20215;-81
2021/12/07 11:17:39;;;;;;;4.70;4.30;;;;;;;0.77;100.00;62077.41;5089465;28;20220;-81
2021/12/07 11:20:08;;;;;;;4.78;4.28;;;;;;;0.78;100.00;62078.94;5107338;28;20248;-81
2021/12/07 11:22:38;;;;;;;4.10;3.80;;;;;;;0.62;100.00;62065.03;5106777;28;20235;-81
2021/12/07 11:25:07;;;;;;;5.93;4.80;;;;;;;0.55;100.00;62057.34;5115327;28;20216;-82
2021/12/07 11:30:22;;;;;;;6.05;4.68;;;;;;;0.77;100.00;62074.88;5118003;28;20199;-81
2021/12/07 11:32:55;;;;;;;7.57;5.05;;;;;;;0.74;100.00;62074.81;5113404;28;20208;-81
2021/12/07 11:35:26;;;;;;;8.40;4.70;;;;;;;0.57;100.00;62059.91;5099414;28;20243;-81
2021/12/07 11:37:56;;;;;;;3.92;3.70;;;;;;;0.90;100.00;62093.22;5109371;28;20235;-80
2021/12/07 11:40:26;;;;;;;6.72;4.63;;;;;;;1.02;100.00;62106.06;5123307;28;20207;-80
2021/12/07 11:42:53;;;;;;;3.55;3.30;;;;;;;1.03;100.00;62106.56;5124718;27;20293;-81
2021/12/07 11:45:25;;;;;;;1.63;1.58;;;;;;;0.86;100.00;62084.63;5109732;28;20219;-81
2021/12/07 11:47:54;;;;;;;2.47;2.38;;;;;;;0.84;100.00;62087.06;5094384;28;20224;-80
2021/12/07 11:50:31;;;;;;;2.72;2.53;;;;;;;0.76;100.00;62071.38;5099455;28;20505;-82
2021/12/07 11:53:03;;;;;;;2.40;2.28;;;;;;;0.66;100.00;62066.63;5114766;28;20219;-80
2021/12/07 11:55:31;;;;;;;1.88;1.77;;;;;;;0.60;100.00;62064.97;5092945;28;20208;-81
2021/12/07 11:57:59;;;;;;;1.98;1.80;;;;;;;0.50;100.00;62050.22;5098962;28;20564;-80
2021/12/07 12:00:34;;;;;;;2.50;2.30;;;;;;;0.50;100.00;62047.22;5095146;28;20242;-82
2021/12/07 12:03:01;;;;;;;1.52;1.42;;;;;;;0.34;100.00;62036.31;5118760;28;20577;-80
2021/12/07 12:05:28;;;;;;;1.30;1.30;;;;;;;0.38;100.00;62035.41;5105473;28;20199;-79
2021/12/07 12:07:56;;;;;;;1.95;1.85;;;;;;;0.37;100.00;62039.41;5105246;28;20226;-80
2021/12/07 12:10:25;;;;;;;1.83;1.73;;;;;;;0.55;100.00;62059.84;5097171;28;20434;-80
2021/12/07 12:13:08;;;;;;;2.60;2.40;;;;;;;0.44;100.00;62043.56;5116576;28;20286;-80
2021/12/07 12:15:47;;;;;;;3.10;2.95;;;;;;;0.49;100.00;62051.69;5116207;28;20211;-80
2021/12/07 12:18:20;;;;;;;1.80;1.73;;;;;;;0.37;100.00;62036.91;5089474;28;20238;-79
2021/12/07 12:21:00;;;;;;;1.95;1.85;;;;;;;0.47;100.00;62047.16;5097463;28;20501;-80
2021/12/07 12:23:34;;;;;;;1.30;1.30;;;;;;;0.39;100.00;62040.94;5096096;28;20257;-80
2021/12/07 12:26:07;;;;;;;1.90;1.80;;;;;;;0.38;100.00;62034.91;5088036;28;20204;-80
2021/12/07 12:28:36;;;;;;;1.85;1.75;;;;;;;0.50;100.00;62052.22;5111711;28;20261;-80
2021/12/07 12:31:03;;;;;;;1.40;1.40;;;;;;;0.39;100.00;62038.94;5101185;28;20456;-79
2021/12/07 12:33:46;;;;;;;1.75;1.65;;;;;;;0.45;100.00;62049.59;5110032;28;20219;-80
2021/12/07 12:36:14;;;;;;;1.88;1.77;;;;;;;0.44;100.00;62046.56;5127574;28;20272;-79
2021/12/07 12:38:48;;;;;;;2.20;2.10;;;;;;;0.42;100.00;62039.50;5099787;28;20295;-80
2021/12/07 12:41:17;;;;;;;2.20;2.10;;;;;;;0.47;100.00;62046.63;5112639;28;20231;-80
2021/12/07 12:43:52;;;;;;;2.17;2.00;;;;;;;0.42;100.00;62042.03;5099934;28;20528;-80
2021/12/07 12:46:22;;;;;;;2.15;2.05;;;;;;;0.42;100.00;62041.50;5107062;28;20198;-80
2021/12/07 12:48:51;;;;;;;1.90;1.80;;;;;;;0.32;100.00;62034.28;5102105;28;20234;-79
2021/12/07 12:51:19;;;;;;;2.05;1.90;;;;;;;0.33;100.00;62032.78;5092841;28;20494;-78
2021/12/07 12:53:48;;;;;;;1.58;1.58;;;;;;;0.23;100.00;62020.03;5101989;28;20258;-79
2021/12/07 12:56:18;;;;;;;1.60;1.50;;;;;;;0.37;100.00;62033.88;5106515;28;20235;-78
2021/12/07 12:58:48;;;;;;;1.10;0.95;;;;;;;0.27;100.00;62024.16;5106770;28;20222;-78
2021/12/07 13:01:27;;;;;;;1.77;1.67;;;;;;;0.37;100.00;62038.88;5106951;28;20196;-79
2021/12/07 13:04:05;;;;;;;1.77;1.67;;;;;;;0.39;100.00;62041.44;5094089;28;20220;-79
2021/12/07 13:06:44;;;;;;;1.60;1.60;;;;;;;0.37;100.00;62041.38;5105489;28;20260;-79
2021/12/07 13:09:24;;;;;;;1.80;1.70;;;;;;;0.38;100.00;62037.41;5105223;28;20211;-78
2021/12/07 13:11:55;;;;;;;1.73;1.67;;;;;;;0.34;100.00;62033.31;5100427;28;20201;-79
2021/12/07 13:14:38;;;;;;;1.33;1.33;;;;;;;0.33;100.00;62029.78;5093753;28;20219;-79
2021/12/07 13:17:16;;;;;;;2.95;2.58;;;;;;;0.26;100.00;62028.13;5091999;28;20216;-77
2021/12/07 13:20:12;;;;;;;2.80;2.45;;;;;;;0.19;100.00;62020.44;5106036;28;20253;-79